Time;durP1;ratioP1;P1;durP2;ratioP2;P2;SDS_P1;SDS_P2;PMS_P1;PMS_P2;Temp;Humidity;BMP_temperature;BMP_pressure;BME280_temperature;BME280_humidity;BME280_pressure;Samples;Min_cycle;Max_cycle;Signal;HPM_P1;HPM_P2
2023/02/12 00:02:05;;;;;;;25.37;18.47;;;;;;;9.56;53.17;100703.53;7033125;28;20201;-80
2023/02/12 00:05:26;;;;;;;28.77;19.37;;;;;;;10.07;52.79;100768.38;7034029;28;20737;-80
2023/02/12 00:08:50;;;;;;;27.17;18.97;;;;;;;10.20;52.31;100771.53;7033010;28;20305;-80
2023/02/12 00:12:12;;;;;;;27.23;18.73;;;;;;;10.35;51.95;100770.84;7033460;28;20244;-80
2023/02/12 00:15:34;;;;;;;27.80;17.73;;;;;;;10.19;52.13;100770.69;7034367;28;20304;-80
2023/02/12 00:18:57;;;;;;;26.37;18.27;;;;;;;9.89;52.19;100741.41;7033214;28;20228;-79
2023/02/12 00:22:18;;;;;;;24.93;19.83;;;;;;;10.11;52.31;100775.16;7032337;28;20264;-80
2023/02/12 00:25:44;;;;;;;23.90;17.70;;;;;;;10.22;51.86;100777.63;7033653;28;20246;-80
2023/02/12 00:29:06;;;;;;;27.57;19.10;;;;;;;10.26;52.24;100774.47;7032744;28;20252;-80
2023/02/12 00:32:28;;;;;;;26.67;18.60;;;;;;;10.07;52.33;100757.59;7032887;28;20248;-80
2023/02/12 00:35:56;;;;;;;24.80;17.30;;;;;;;10.10;52.16;100746.53;7033063;28;20243;-80
2023/02/12 00:39:17;;;;;;;25.43;19.47;;;;;;;10.23;51.76;100755.91;7033711;28;20204;-80
2023/02/12 00:42:40;;;;;;;23.97;17.67;;;;;;;10.02;52.32;100784.13;7032896;28;20292;-80
2023/02/12 00:46:01;;;;;;;27.43;19.03;;;;;;;9.82;53.42;100778.06;7033013;28;20296;-80
2023/02/12 00:49:23;;;;;;;24.93;17.57;;;;;;;10.13;52.44;100770.44;7038860;28;20228;-80
2023/02/12 00:52:45;;;;;;;25.50;18.30;;;;;;;10.23;52.42;100779.31;7037872;28;20647;-79
2023/02/12 00:56:06;;;;;;;27.03;18.23;;;;;;;10.33;51.51;100767.44;7037774;28;20690;-80
2023/02/12 00:59:30;;;;;;;25.77;17.57;;;;;;;9.79;52.59;100793.66;7037967;28;20264;-80
2023/02/12 01:02:51;;;;;;;24.37;17.53;;;;;;;9.28;54.28;100761.91;7038051;28;20209;-80
2023/02/12 01:06:13;;;;;;;27.63;17.87;;;;;;;9.76;54.06;100789.44;7037780;28;20297;-80
2023/02/12 01:09:34;;;;;;;24.83;17.60;;;;;;;9.88;53.36;100763.09;7037861;28;20343;-79
2023/02/12 01:12:56;;;;;;;22.30;16.83;;;;;;;9.99;53.10;100777.19;7022783;28;20246;-80
2023/02/12 01:16:21;;;;;;;23.03;17.53;;;;;;;9.67;53.56;100768.78;7009484;28;20639;-80
2023/02/12 01:19:43;;;;;;;21.73;16.20;;;;;;;9.88;53.89;100769.34;7010166;28;20282;-79
2023/02/12 01:23:05;;;;;;;21.40;16.47;;;;;;;10.11;53.09;100767.91;7008438;28;20273;-79
2023/02/12 01:26:28;;;;;;;27.40;17.87;;;;;;;10.18;52.54;100776.22;7008053;28;20226;-80
2023/02/12 01:29:49;;;;;;;24.40;18.33;;;;;;;10.14;52.50;100770.31;7008347;28;20254;-80
2023/02/12 01:33:12;;;;;;;25.37;18.03;;;;;;;9.66;53.22;100736.59;7011458;28;20659;-79
2023/02/12 01:36:34;;;;;;;27.20;17.80;;;;;;;9.80;53.80;100790.81;7015309;28;20269;-79
2023/02/12 01:39:56;;;;;;;23.60;18.00;;;;;;;9.77;53.82;100774.97;7006757;28;20263;-79
2023/02/12 01:43:17;;;;;;;23.33;18.77;;;;;;;9.80;53.78;100774.63;7007832;28;20269;-79
2023/02/12 01:46:40;;;;;;;25.93;19.07;;;;;;;10.03;53.56;100778.63;7006653;28;20264;-79
2023/02/12 01:50:03;;;;;;;29.03;20.20;;;;;;;10.06;53.16;100778.31;7007654;28;20880;-80
2023/02/12 01:53:29;;;;;;;26.10;18.73;;;;;;;10.14;52.98;100778.38;7007463;28;20391;-79
2023/02/12 01:56:50;;;;;;;24.90;17.73;;;;;;;9.93;53.58;100758.94;7006597;28;20318;-79
2023/02/12 02:00:15;;;;;;;27.43;19.23;;;;;;;10.04;53.21;100771.41;7007095;28;20269;-79
2023/02/12 02:03:37;;;;;;;25.87;19.67;;;;;;;9.63;54.10;100767.38;7006877;28;20201;-79
2023/02/12 02:07:02;;;;;;;25.13;19.03;;;;;;;9.88;54.15;100774.75;7006656;28;20217;-80
2023/02/12 02:10:23;;;;;;;28.33;19.07;;;;;;;9.74;54.02;100769.03;7007004;28;20344;-79
2023/02/12 02:17:39;;;;;;;26.97;20.67;;;;;;;9.84;54.26;100764.41;7006171;28;20222;-80
2023/02/12 02:21:16;;;;;;;28.60;20.00;;;;;;;9.94;53.59;100739.09;7006279;28;20279;-80
2023/02/12 02:25:26;;;;;;;27.43;20.03;;;;;;;9.70;54.02;100756.88;7007347;28;20568;-79
2023/02/12 02:29:02;;;;;;;27.57;20.83;;;;;;;9.95;53.65;100766.88;7005756;28;20316;-80
2023/02/12 02:32:27;;;;;;;26.53;18.87;;;;;;;10.20;53.24;100760.75;7005903;28;20257;-80
2023/02/12 02:35:53;;;;;;;23.97;18.20;;;;;;;10.14;52.35;100737.09;7006447;28;20273;-79
2023/02/12 02:39:19;;;;;;;23.90;17.90;;;;;;;10.16;51.83;100713.56;7006152;28;20285;-80
2023/02/12 02:42:45;;;;;;;25.00;18.17;;;;;;;10.24;51.97;100741.41;7007108;28;20210;-80
2023/02/12 02:46:11;;;;;;;23.80;18.03;;;;;;;10.06;52.72;100732.50;7008335;28;20312;-80
2023/02/12 02:49:37;;;;;;;27.03;19.17;;;;;;;10.12;52.70;100733.72;7008350;28;20231;-80
2023/02/12 02:53:02;;;;;;;38.00;24.53;;;;;;;10.12;52.91;100749.91;7008620;28;20277;-80
2023/02/12 02:56:24;;;;;;;27.97;20.10;;;;;;;10.04;53.07;100736.34;7007363;28;20282;-80
2023/02/12 02:59:48;;;;;;;30.87;19.97;;;;;;;10.07;53.01;100723.41;7008535;28;20236;-80
2023/02/12 03:03:12;;;;;;;25.50;19.67;;;;;;;9.67;53.66;100720.31;7008328;28;20205;-80
2023/02/12 03:06:38;;;;;;;25.07;18.87;;;;;;;9.47;53.99;100720.59;7007693;28;20349;-80
2023/02/12 03:10:02;;;;;;;28.43;19.90;;;;;;;9.60;54.70;100742.59;7007919;28;20193;-80
2023/02/12 03:13:26;;;;;;;24.73;18.80;;;;;;;9.94;54.09;100743.63;7010688;28;20313;-79
2023/02/12 03:16:52;;;;;;;28.83;20.50;;;;;;;10.06;53.78;100742.44;7006501;28;20715;-80
2023/02/12 03:20:17;;;;;;;26.57;19.57;;;;;;;10.22;53.26;100759.59;7006299;28;20292;-80
2023/02/12 03:23:44;;;;;;;31.30;20.43;;;;;;;10.13;53.20;100771.31;7007599;28;20186;-80
2023/02/12 03:27:09;;;;;;;28.73;21.70;;;;;;;10.12;52.77;100742.66;7006368;28;20411;-80
2023/02/12 03:30:37;;;;;;;27.40;20.30;;;;;;;10.18;52.27;100739.34;7006900;28;20296;-80
2023/02/12 03:34:06;;;;;;;27.80;19.40;;;;;;;10.31;52.39;100757.81;7006161;28;20216;-80
2023/02/12 03:37:30;;;;;;;25.83;19.90;;;;;;;10.03;52.92;100753.50;7006631;28;20255;-80
2023/02/12 03:40:57;;;;;;;28.63;19.50;;;;;;;9.73;53.74;100743.06;7007517;28;20198;-80
2023/02/12 03:44:25;;;;;;;32.97;22.90;;;;;;;9.83;54.01;100760.03;7006985;28;20190;-80
2023/02/12 03:47:49;;;;;;;31.27;21.60;;;;;;;9.92;53.67;100765.34;7017039;28;20282;-79
2023/02/12 03:51:17;;;;;;;30.83;23.97;;;;;;;10.15;53.43;100749.59;7006200;28;20299;-79
2023/02/12 03:54:39;;;;;;;32.10;23.40;;;;;;;10.32;52.19;100762.19;7004469;28;20307;-79
2023/02/12 03:58:03;;;;;;;33.50;23.60;;;;;;;10.11;52.74;100765.22;7004404;28;20716;-79
2023/02/12 04:01:24;;;;;;;32.97;23.60;;;;;;;9.91;53.12;100750.19;7005439;28;20293;-79
2023/02/12 04:04:47;;;;;;;32.03;23.03;;;;;;;10.24;52.28;100764.81;7013496;28;20229;-81
2023/02/12 04:08:09;;;;;;;33.53;24.13;;;;;;;10.24;52.33;100754.03;7004224;28;20371;-79
2023/02/12 04:11:39;;;;;;;32.50;23.53;;;;;;;10.37;51.51;100784.16;7005689;28;20267;-79
2023/02/12 04:15:12;;;;;;;31.40;23.57;;;;;;;10.47;51.36;100772.28;7004617;28;20408;-79
2023/02/12 04:18:40;;;;;;;31.23;23.23;;;;;;;10.49;51.35;100778.34;7003728;28;20263;-79
2023/02/12 04:22:13;;;;;;;38.00;24.37;;;;;;;10.39;50.68;100777.59;7005947;28;20276;-79
2023/02/12 04:25:43;;;;;;;34.03;23.73;;;;;;;10.22;51.28;100773.06;7010842;28;20284;-80
2023/02/12 04:29:14;;;;;;;31.80;24.87;;;;;;;10.44;51.28;100779.81;7010463;28;20288;-79
2023/02/12 04:32:41;;;;;;;31.93;24.03;;;;;;;10.48;50.74;100770.41;7010674;28;20704;-80
2023/02/12 04:36:06;;;;;;;31.73;23.27;;;;;;;10.56;50.53;100794.78;7008899;28;20331;-80
2023/02/12 04:39:30;;;;;;;36.70;25.80;;;;;;;10.73;50.00;100788.47;7007529;28;20693;-80
2023/02/12 04:42:52;;;;;;;32.33;23.47;;;;;;;10.68;50.05;100772.75;7007601;28;20198;-80
2023/02/12 04:46:14;;;;;;;31.17;23.33;;;;;;;10.70;50.32;100788.78;7007026;28;20226;-80
2023/02/12 04:49:37;;;;;;;35.40;25.77;;;;;;;10.61;50.22;100789.72;7007677;28;20287;-80
2023/02/12 04:52:58;;;;;;;33.23;24.03;;;;;;;10.68;50.40;100782.72;7007274;28;20356;-80
2023/02/12 04:56:20;;;;;;;28.23;22.23;;;;;;;10.71;50.39;100796.75;7006327;28;20347;-80
2023/02/12 04:59:41;;;;;;;34.27;23.33;;;;;;;10.51;51.13;100781.72;7007164;28;20300;-80
2023/02/12 05:03:03;;;;;;;34.87;23.73;;;;;;;10.56;51.09;100790.22;7006946;28;20209;-80
2023/02/12 05:06:26;;;;;;;30.57;23.07;;;;;;;10.41;51.18;100774.75;7006215;28;20282;-80
2023/02/12 05:09:47;;;;;;;38.17;24.07;;;;;;;10.44;51.13;100783.38;7006665;28;20320;-80
2023/02/12 05:13:09;;;;;;;34.87;25.73;;;;;;;10.37;51.90;100789.53;7005566;28;20285;-80
2023/02/12 05:16:31;;;;;;;32.80;25.03;;;;;;;10.35;51.77;100783.47;7031475;28;20280;-80
2023/02/12 05:19:52;;;;;;;36.77;24.23;;;;;;;10.17;52.54;100778.06;7033856;28;20209;-80
2023/02/12 05:23:15;;;;;;;31.67;23.67;;;;;;;10.01;52.37;100785.13;7033783;28;20265;-80
2023/02/12 05:26:37;;;;;;;31.20;23.47;;;;;;;10.11;51.98;100769.78;7033138;28;20316;-79
2023/02/12 05:29:58;;;;;;;36.87;24.60;;;;;;;10.34;51.99;100784.47;7032889;28;20212;-80
2023/02/12 05:33:20;;;;;;;33.13;23.53;;;;;;;10.25;52.09;100775.47;7032326;28;20221;-80
2023/02/12 05:36:41;;;;;;;34.37;24.13;;;;;;;9.62;53.18;100789.94;7032878;28;20362;-80
2023/02/12 05:40:06;;;;;;;34.07;24.97;;;;;;;9.83;53.69;100785.13;7033648;28;20830;-80
2023/02/12 05:43:27;;;;;;;32.73;22.80;;;;;;;10.08;52.21;100787.09;7032972;28;20242;-80
2023/02/12 05:46:49;;;;;;;33.10;25.70;;;;;;;10.10;52.42;100787.78;7032790;28;20225;-80
2023/02/12 05:50:11;;;;;;;35.20;24.20;;;;;;;9.76;53.49;100761.63;7032987;28;20292;-80
2023/02/12 05:53:33;;;;;;;34.67;23.97;;;;;;;10.04;52.62;100801.88;7032878;28;20228;-80
2023/02/12 05:56:56;;;;;;;34.30;23.63;;;;;;;10.01;52.13;100791.38;7032886;28;20277;-80
2023/02/12 06:00:18;;;;;;;35.40;25.60;;;;;;;9.77;52.98;100784.88;7044470;28;20803;-80
2023/02/12 06:03:39;;;;;;;34.43;24.63;;;;;;;9.75;52.84;100784.19;7032342;28;20271;-79
2023/02/12 06:07:01;;;;;;;33.00;24.40;;;;;;;9.60;52.24;100774.91;7031067;28;20293;-79
2023/02/12 06:10:22;;;;;;;32.43;23.30;;;;;;;9.86;52.99;100787.50;7031052;28;20296;-79
2023/02/12 06:13:45;;;;;;;42.10;25.43;;;;;;;9.88;52.74;100790.91;7030592;28;20297;-80
2023/02/12 06:17:07;;;;;;;37.10;27.00;;;;;;;9.68;53.14;100789.31;7031229;28;20819;-79
2023/02/12 06:20:28;;;;;;;33.00;23.60;;;;;;;10.02;52.00;100795.75;7031481;28;20724;-79
2023/02/12 06:23:51;;;;;;;33.00;24.33;;;;;;;9.79;52.71;100807.97;7033052;28;20278;-79
2023/02/12 06:27:12;;;;;;;38.17;25.67;;;;;;;9.32;54.17;100794.75;7031783;28;20225;-79
2023/02/12 06:30:35;;;;;;;35.77;24.03;;;;;;;9.42;53.37;100774.03;7032590;28;20298;-79
2023/02/12 06:33:58;;;;;;;32.53;23.83;;;;;;;9.68;52.93;100805.50;7032847;28;20225;-79
2023/02/12 06:37:19;;;;;;;32.80;22.67;;;;;;;9.88;52.67;100798.13;7032133;28;20277;-80
2023/02/12 06:40:41;;;;;;;32.17;24.37;;;;;;;9.37;54.15;100801.41;7032525;28;20291;-79
2023/02/12 06:44:03;;;;;;;31.83;23.93;;;;;;;9.55;53.72;100812.22;7032191;28;20676;-79
2023/02/12 06:47:26;;;;;;;36.13;25.47;;;;;;;9.65;53.44;100813.03;7031514;28;20278;-80
2023/02/12 06:50:48;;;;;;;37.30;27.03;;;;;;;9.75;53.36;100813.81;7031751;28;20291;-80
2023/02/12 06:54:13;;;;;;;37.20;27.03;;;;;;;9.86;53.31;100819.84;7032096;28;20221;-80
2023/02/12 06:57:35;;;;;;;32.70;25.17;;;;;;;9.95;53.03;100826.16;7030393;28;20316;-79
2023/02/12 07:00:56;;;;;;;35.30;25.17;;;;;;;9.09;54.93;100831.16;7031160;28;20299;-79
2023/02/12 07:04:20;;;;;;;34.97;24.10;;;;;;;9.28;54.66;100825.69;7031253;28;20269;-79
2023/02/12 07:07:41;;;;;;;38.00;26.03;;;;;;;8.99;55.91;100830.31;7030681;28;20763;-79
2023/02/12 07:11:03;;;;;;;35.77;25.97;;;;;;;9.39;54.35;100785.13;7030934;28;20205;-79
2023/02/12 07:14:27;;;;;;;41.53;26.13;;;;;;;9.83;53.68;100808.53;7026557;28;20291;-80
2023/02/12 07:17:48;;;;;;;38.87;25.53;;;;;;;9.92;53.66;100829.19;7002417;28;20222;-80
2023/02/12 07:21:13;;;;;;;37.53;26.57;;;;;;;9.64;53.42;100832.88;7001980;28;20263;-79
2023/02/12 07:24:34;;;;;;;35.03;25.17;;;;;;;10.03;53.11;100831.66;7002352;28;20212;-79
2023/02/12 07:27:56;;;;;;;35.70;27.10;;;;;;;10.21;52.39;100827.16;7002009;28;20225;-79
2023/02/12 07:31:19;;;;;;;37.07;26.57;;;;;;;10.16;52.15;100832.16;7002842;28;20262;-79
2023/02/12 07:34:40;;;;;;;36.13;25.63;;;;;;;10.14;52.47;100832.31;7002214;28;20267;-79
2023/02/12 07:38:03;;;;;;;36.60;26.03;;;;;;;10.12;52.61;100844.25;7001967;28;20702;-79
2023/02/12 07:41:26;;;;;;;36.50;25.87;;;;;;;10.00;53.43;100829.25;7002442;28;20213;-77
2023/02/12 07:44:48;;;;;;;36.90;27.97;;;;;;;10.10;53.73;100830.06;7002182;28;20229;-77
2023/02/12 07:48:09;;;;;;;36.07;26.07;;;;;;;10.06;53.06;100812.50;7001606;28;20225;-77
2023/02/12 07:51:32;;;;;;;35.80;25.87;;;;;;;10.18;53.32;100836.41;7012645;28;20550;-79
2023/02/12 07:54:55;;;;;;;38.03;27.83;;;;;;;10.27;53.04;100840.03;7001298;28;20214;-79
2023/02/12 07:58:16;;;;;;;40.27;27.27;;;;;;;10.42;52.76;100835.75;7000889;28;20234;-79
2023/02/12 08:01:40;;;;;;;32.97;25.37;;;;;;;10.11;53.31;100837.97;7001804;28;20209;-79
2023/02/12 08:05:02;;;;;;;34.53;25.80;;;;;;;10.56;52.49;100827.97;7001922;28;20205;-79
2023/02/12 08:08:23;;;;;;;36.27;26.43;;;;;;;10.39;52.66;100836.09;7001517;28;20324;-79
2023/02/12 08:11:46;;;;;;;36.13;26.83;;;;;;;10.12;53.37;100836.16;7013973;28;20237;-80
2023/02/12 08:15:09;;;;;;;36.93;26.43;;;;;;;10.31;53.38;100830.59;7003747;28;20378;-79
2023/02/12 08:18:31;;;;;;;36.33;26.20;;;;;;;10.63;51.95;100834.44;7000883;28;20254;-79
2023/02/12 08:21:53;;;;;;;40.63;26.97;;;;;;;10.35;52.31;100813.13;7000507;28;20201;-79
2023/02/12 08:25:15;;;;;;;37.93;28.47;;;;;;;10.89;52.32;100826.38;7001529;28;20700;-79
2023/02/12 08:28:40;;;;;;;39.47;28.37;;;;;;;10.85;51.46;100789.91;7001089;28;20317;-79
2023/02/12 08:32:05;;;;;;;35.93;26.43;;;;;;;11.35;51.00;100818.75;7001456;28;20209;-79
2023/02/12 08:35:26;;;;;;;38.70;27.57;;;;;;;10.83;51.56;100813.50;7001891;28;20228;-79
2023/02/12 08:38:48;;;;;;;39.17;27.57;;;;;;;11.51;50.82;100823.38;7001081;28;20225;-80
2023/02/12 08:42:10;;;;;;;39.03;25.97;;;;;;;11.37;50.02;100802.34;7001409;28;20254;-79
2023/02/12 08:45:33;;;;;;;37.10;28.73;;;;;;;11.12;50.76;100776.25;7021588;28;20253;-79
2023/02/12 08:48:56;;;;;;;42.10;28.97;;;;;;;10.93;52.23;100804.28;7028635;28;20311;-79
2023/02/12 08:52:18;;;;;;;39.43;28.00;;;;;;;11.72;50.55;100819.25;7029242;28;20292;-79
2023/02/12 08:55:40;;;;;;;39.33;28.20;;;;;;;11.87;50.53;100823.00;7028680;28;20806;-79
2023/02/12 08:59:03;;;;;;;40.37;27.47;;;;;;;12.20;49.55;100830.19;7028511;28;20229;-79
2023/02/12 09:02:26;;;;;;;37.97;29.50;;;;;;;12.34;48.73;100817.88;7029412;28;20209;-79
2023/02/12 09:05:48;;;;;;;42.97;28.37;;;;;;;12.41;48.68;100837.84;7028538;28;20288;-80
2023/02/12 09:09:09;;;;;;;41.57;29.03;;;;;;;12.30;48.93;100830.91;7032076;28;20205;-80
2023/02/12 09:12:31;;;;;;;40.53;29.47;;;;;;;12.35;49.45;100831.25;7034139;28;20213;-80
2023/02/12 09:15:52;;;;;;;39.80;28.60;;;;;;;11.77;50.55;100829.56;7033286;28;20245;-79
2023/02/12 09:19:15;;;;;;;38.40;26.73;;;;;;;11.91;51.07;100821.69;7033737;28;20269;-79
2023/02/12 09:22:37;;;;;;;32.73;24.37;;;;;;;11.51;52.67;100821.50;7032045;28;20281;-80
2023/02/12 09:25:59;;;;;;;37.80;25.27;;;;;;;11.26;53.53;100827.78;7033192;28;20255;-79
2023/02/12 09:29:20;;;;;;;39.93;26.93;;;;;;;10.98;54.95;100825.44;7033450;28;20243;-79
2023/02/12 09:32:42;;;;;;;38.90;26.93;;;;;;;11.15;54.43;100825.34;7033798;28;20326;-79
2023/02/12 09:36:06;;;;;;;35.03;23.93;;;;;;;11.78;53.01;100820.44;7032849;28;20366;-79
2023/02/12 09:39:29;;;;;;;35.17;24.77;;;;;;;11.68;52.83;100817.88;7033172;28;20268;-79
2023/02/12 09:43:23;;;;;;;37.20;24.80;;;;;;;11.71;52.69;100831.09;7033230;28;20208;-79
2023/02/12 09:46:48;;;;;;;34.37;24.73;;;;;;;11.19;53.78;100815.09;7018699;28;20311;-79
2023/02/12 09:50:33;;;;;;;37.60;25.73;;;;;;;11.55;53.19;100811.19;7032844;28;20244;-80
2023/02/12 09:54:01;;;;;;;30.50;22.17;;;;;;;11.62;53.16;100823.94;7032596;28;20297;-79
2023/02/12 09:57:28;;;;;;;33.17;23.33;;;;;;;11.89;52.50;100820.16;7032200;28;20232;-79
2023/02/12 10:00:49;;;;;;;29.37;20.80;;;;;;;11.93;52.57;100816.94;7033270;28;20526;-80
2023/02/12 10:04:11;;;;;;;29.77;19.63;;;;;;;12.82;50.50;100826.88;7032652;28;20295;-80
2023/02/12 10:07:49;;;;;;;30.30;21.13;;;;;;;13.16;49.26;100827.50;7031712;28;20283;-80
2023/02/12 10:11:21;;;;;;;32.70;22.63;;;;;;;13.18;49.26;100827.31;7032628;28;20224;-80
2023/02/12 10:15:12;;;;;;;27.10;19.43;;;;;;;13.32;48.61;100822.03;7032208;28;20665;-80
2023/02/12 10:18:48;;;;;;;26.83;18.47;;;;;;;12.22;51.30;100820.03;7031864;28;20570;-80
2023/02/12 10:22:17;;;;;;;25.77;17.43;;;;;;;12.61;50.52;100812.13;7039908;28;20200;-79
2023/02/12 10:25:45;;;;;;;20.03;15.00;;;;;;;13.14;49.17;100820.56;7037122;28;20342;-80
2023/02/12 10:29:13;;;;;;;22.50;14.50;;;;;;;12.76;49.70;100805.84;7031718;28;20378;-79
2023/02/12 10:32:35;;;;;;;16.50;12.27;;;;;;;12.86;50.00;100821.94;7032357;28;20276;-79
2023/02/12 10:36:01;;;;;;;12.63;7.60;;;;;;;12.65;50.31;100832.44;7030739;28;20370;-80
2023/02/12 10:39:24;;;;;;;12.90;9.07;;;;;;;13.28;48.90;100811.72;7032099;28;20291;-79
2023/02/12 10:42:47;;;;;;;10.77;8.23;;;;;;;13.30;48.99;100815.09;7031646;28;20343;-80
2023/02/12 10:46:13;;;;;;;9.27;7.37;;;;;;;13.19;49.06;100810.06;7031130;28;20244;-79
2023/02/12 10:49:35;;;;;;;14.40;10.10;;;;;;;13.09;49.49;100810.25;7023775;28;20664;-79
2023/02/12 10:52:59;;;;;;;15.33;9.43;;;;;;;12.70;50.03;100816.53;7003271;28;20241;-80
2023/02/12 10:56:23;;;;;;;12.13;10.17;;;;;;;13.52;49.26;100798.94;7002708;28;20230;-80
2023/02/12 10:59:46;;;;;;;10.97;8.70;;;;;;;11.82;52.34;100787.53;7003849;28;20285;-80
2023/02/12 11:03:21;;;;;;;7.57;5.50;;;;;;;11.60;54.22;100809.75;7003298;28;20300;-77
2023/02/12 11:06:57;;;;;;;6.93;5.03;;;;;;;11.88;53.00;100802.25;7002456;28;20226;-77
2023/02/12 11:10:25;;;;;;;6.30;5.43;;;;;;;12.06;52.65;100792.16;7003477;28;20201;-78
2023/02/12 11:13:54;;;;;;;8.53;6.20;;;;;;;12.74;50.59;100788.94;7003330;28;20878;-79
2023/02/12 11:17:24;;;;;;;7.60;6.50;;;;;;;12.24;52.24;100804.53;7002500;28;20287;-79
2023/02/12 11:20:51;;;;;;;9.70;6.90;;;;;;;11.35;54.58;100788.16;7001937;28;20183;-78
2023/02/12 11:24:29;;;;;;;8.97;6.90;;;;;;;12.30;52.43;100793.03;7002336;28;20189;-78
2023/02/12 11:28:06;;;;;;;10.23;6.87;;;;;;;12.71;50.64;100791.16;7001430;28;20229;-78
2023/02/12 11:31:29;;;;;;;10.33;6.97;;;;;;;12.45;51.92;100782.38;7000873;28;20758;-78
2023/02/12 11:35:05;;;;;;;7.07;5.60;;;;;;;13.53;48.93;100783.53;7002359;28;20279;-79
2023/02/12 11:38:33;;;;;;;7.07;5.50;;;;;;;13.67;47.88;100778.22;7001772;28;20245;-79
2023/02/12 11:41:57;;;;;;;8.00;6.27;;;;;;;12.40;50.76;100763.94;7002132;28;20269;-79
2023/02/12 11:45:20;;;;;;;7.90;5.80;;;;;;;12.88;50.13;100776.59;7002630;28;20205;-78
2023/02/12 11:48:46;;;;;;;8.50;6.30;;;;;;;12.20;52.44;100780.66;7001687;28;20783;-78
2023/02/12 11:52:07;;;;;;;7.47;5.87;;;;;;;12.42;51.83;100785.41;7002332;28;20196;-79
2023/02/12 11:55:32;;;;;;;6.50;5.90;;;;;;;11.82;53.42;100784.84;7002033;28;20315;-78
2023/02/12 11:58:55;;;;;;;7.70;6.40;;;;;;;12.40;52.53;100779.34;7001944;28;20226;-79
2023/02/12 12:02:22;;;;;;;7.53;6.03;;;;;;;12.49;52.27;100773.75;7000774;28;20205;-79
2023/02/12 12:05:46;;;;;;;7.10;6.13;;;;;;;12.47;51.95;100772.22;7001655;28;20190;-79
2023/02/12 12:09:13;;;;;;;8.13;5.57;;;;;;;12.84;51.33;100737.31;7001444;28;20262;-79
2023/02/12 12:12:40;;;;;;;7.27;5.80;;;;;;;13.09;50.61;100749.84;7001789;28;20293;-79
2023/02/12 12:19:54;;;;;;;7.77;6.13;;;;;;;12.57;51.89;100762.09;7001654;28;20637;-79
2023/02/12 12:23:18;;;;;;;7.20;5.87;;;;;;;12.34;52.28;100771.91;7001579;28;20281;-78
2023/02/12 12:26:40;;;;;;;7.50;5.83;;;;;;;12.07;53.27;100742.44;7000857;28;20315;-79
2023/02/12 12:30:06;;;;;;;7.83;5.80;;;;;;;12.43;51.53;100736.56;7001470;28;20297;-79
2023/02/12 12:33:36;;;;;;;7.70;5.97;;;;;;;13.02;50.24;100757.81;7011418;28;20187;-79
2023/02/12 12:37:16;;;;;;;7.17;5.53;;;;;;;13.00;50.69;100746.31;7004747;28;20323;-79
2023/02/12 12:40:46;;;;;;;7.90;6.00;;;;;;;12.74;51.41;100744.81;7000410;28;20241;-78
2023/02/12 12:44:18;;;;;;;6.40;5.73;;;;;;;13.29;49.79;100751.09;7004661;28;20335;-78
2023/02/12 12:47:49;;;;;;;6.37;5.70;;;;;;;12.72;51.17;100727.88;7005793;28;20371;-78
2023/02/12 12:51:20;;;;;;;6.50;5.43;;;;;;;13.51;50.05;100745.75;7006225;28;20608;-78
2023/02/12 12:54:55;;;;;;;6.40;5.03;;;;;;;13.95;48.71;100736.00;7006262;28;20312;-79
2023/02/12 12:58:23;;;;;;;5.77;4.73;;;;;;;13.21;49.08;100697.81;7005157;28;20306;-78
2023/02/12 13:01:53;;;;;;;6.20;4.90;;;;;;;13.30;49.97;100734.69;7006095;28;20193;-78
2023/02/12 13:05:29;;;;;;;5.93;4.40;;;;;;;13.06;50.68;100731.22;7006109;28;20276;-78
2023/02/12 13:09:29;;;;;;;3.97;3.47;;;;;;;14.12;48.64;100721.31;7005303;28;20247;-78
2023/02/12 13:13:02;;;;;;;4.23;3.43;;;;;;;13.63;48.69;100727.25;7006017;28;20200;-78
2023/02/12 13:16:30;;;;;;;4.37;3.90;;;;;;;13.44;49.63;100728.50;7005419;28;20296;-78
2023/02/12 13:20:01;;;;;;;3.93;3.63;;;;;;;13.77;49.19;100705.63;7005687;28;20259;-79
2023/02/12 13:23:30;;;;;;;5.70;4.57;;;;;;;13.09;51.31;100720.03;7006315;28;20198;-79
2023/02/12 13:26:54;;;;;;;3.90;3.50;;;;;;;13.49;50.30;100709.00;7005801;28;20224;-79
2023/02/12 13:30:20;;;;;;;4.13;3.47;;;;;;;13.70;49.93;100707.34;7005636;28;20274;-79
2023/02/12 13:33:43;;;;;;;5.30;3.70;;;;;;;14.91;46.57;100697.16;7005725;28;20199;-79
2023/02/12 13:37:06;;;;;;;3.83;3.17;;;;;;;14.48;47.38;100684.38;7004828;28;20294;-79
2023/02/12 13:40:30;;;;;;;4.43;3.67;;;;;;;14.89;45.53;100699.22;7005681;28;20357;-79
2023/02/12 13:44:02;;;;;;;4.60;3.47;;;;;;;14.65;47.04;100696.78;7005505;28;20297;-79
2023/02/12 13:47:30;;;;;;;3.53;3.10;;;;;;;14.20;47.82;100690.56;7004918;28;20381;-79
2023/02/12 13:51:06;;;;;;;4.60;2.87;;;;;;;14.72;46.94;100684.13;7005292;28;20184;-79
2023/02/12 13:54:44;;;;;;;4.27;3.53;;;;;;;13.18;50.73;100695.47;7004524;28;20306;-79
2023/02/12 13:58:59;;;;;;;3.53;3.23;;;;;;;13.88;49.38;100698.94;7004873;28;20766;-80
2023/02/12 14:02:49;;;;;;;3.23;2.93;;;;;;;13.30;50.03;100688.63;6905436;28;20225;-79
2023/02/12 14:06:13;;;;;;;3.20;2.90;;;;;;;14.18;48.45;100681.75;7004143;28;20228;-79
2023/02/12 14:09:37;;;;;;;3.43;2.73;;;;;;;14.23;48.46;100684.78;7005178;28;20209;-80
2023/02/12 14:13:11;;;;;;;3.77;3.47;;;;;;;13.85;49.08;100693.88;7005096;28;20240;-79
2023/02/12 14:16:38;;;;;;;3.73;2.97;;;;;;;13.78;48.74;100685.63;7013200;28;20273;-79
2023/02/12 14:20:08;;;;;;;3.37;3.07;;;;;;;14.11;48.32;100668.06;7005056;28;20345;-79
2023/02/12 14:23:32;;;;;;;3.20;2.90;;;;;;;14.86;46.65;100671.59;7005839;28;20192;-79
2023/02/12 14:26:53;;;;;;;3.80;2.90;;;;;;;15.48;44.90;100645.66;7006584;28;20303;-79
2023/02/12 14:30:25;;;;;;;3.47;3.10;;;;;;;13.70;48.25;100666.69;7006625;28;20252;-79
2023/02/12 14:33:48;;;;;;;3.77;3.23;;;;;;;14.21;47.98;100651.59;7004942;28;20201;-79
2023/02/12 14:37:16;;;;;;;3.60;3.07;;;;;;;15.16;45.90;100673.28;7004673;28;20317;-79
2023/02/12 14:40:42;;;;;;;3.30;3.00;;;;;;;13.36;49.05;100633.72;7004736;28;20189;-79
2023/02/12 14:44:40;;;;;;;3.23;2.93;;;;;;;14.22;48.09;100650.56;7006832;28;20214;-79
2023/02/12 14:48:03;;;;;;;3.27;2.87;;;;;;;14.27;47.76;100650.84;7004072;28;20231;-79
2023/02/12 14:51:31;;;;;;;3.97;3.63;;;;;;;14.43;46.98;100662.38;7011825;28;20262;-79
2023/02/12 14:54:56;;;;;;;3.67;3.30;;;;;;;14.40;47.23;100649.16;7031866;28;20234;-79
2023/02/12 14:58:19;;;;;;;3.40;3.10;;;;;;;13.85;48.84;100643.19;7030979;28;20251;-79
2023/02/12 15:01:41;;;;;;;3.40;3.10;;;;;;;14.57;47.16;100644.44;7031773;28;20230;-79
2023/02/12 15:05:06;;;;;;;3.70;3.40;;;;;;;14.45;47.27;100626.91;7030973;28;20761;-79
2023/02/12 15:08:35;;;;;;;3.00;2.80;;;;;;;14.24;47.34;100638.50;7031495;28;20852;-79
2023/02/12 15:12:03;;;;;;;4.23;2.97;;;;;;;14.48;47.50;100631.97;7030602;28;20203;-79
2023/02/12 15:15:29;;;;;;;3.03;2.80;;;;;;;14.79;46.43;100654.34;7031937;28;20259;-79
2023/02/12 15:18:54;;;;;;;3.23;2.97;;;;;;;14.47;47.15;100633.84;7030436;28;20364;-79
2023/02/12 15:22:21;;;;;;;4.17;3.20;;;;;;;14.22;47.45;100645.94;7030127;28;20252;-80
2023/02/12 15:25:43;;;;;;;3.43;2.97;;;;;;;14.22;48.03;100634.28;7030632;28;20342;-79
2023/02/12 15:29:06;;;;;;;3.63;3.10;;;;;;;13.52;49.42;100641.72;7030128;28;20709;-80
2023/02/12 15:32:29;;;;;;;3.27;2.97;;;;;;;14.16;47.98;100633.09;7030095;28;20217;-80
2023/02/12 15:35:50;;;;;;;3.20;2.90;;;;;;;14.47;47.43;100620.28;7030272;28;20279;-79
2023/02/12 15:39:19;;;;;;;3.63;3.07;;;;;;;14.75;46.10;100634.03;7029841;28;20210;-79
2023/02/12 15:42:41;;;;;;;5.07;2.87;;;;;;;14.19;47.39;100630.06;7030600;28;20250;-79
2023/02/12 15:46:06;;;;;;;3.17;2.87;;;;;;;14.24;47.56;100629.50;7029656;28;20197;-79
2023/02/12 15:49:33;;;;;;;3.37;2.87;;;;;;;13.61;49.01;100634.41;7032712;28;20235;-79
2023/02/12 15:52:55;;;;;;;3.00;2.70;;;;;;;14.33;47.34;100609.41;7029902;28;20236;-79